sensor_id;sensor_type;location;lat;lon;timestamp;P1;durP1;ratioP1;P2;durP2;ratioP2
68995;SDS011;56056;48.990;12.146;2022-09-01T00:00:32;12.70;;;11.48;;
68995;SDS011;56056;48.990;12.146;2022-09-01T00:02:58;12.68;;;11.55;;
68995;SDS011;56056;48.990;12.146;2022-09-01T00:05:24;13.10;;;11.80;;
68995;SDS011;56056;48.990;12.146;2022-09-01T00:07:49;13.43;;;12.07;;
68995;SDS011;56056;48.990;12.146;2022-09-01T00:10:16;11.95;;;10.75;;
68995;SDS011;56056;48.990;12.146;2022-09-01T00:12:42;14.02;;;11.50;;
68995;SDS011;56056;48.990;12.146;2022-09-01T00:15:09;12.40;;;11.30;;
68995;SDS011;56056;48.990;12.146;2022-09-01T00:17:36;12.15;;;11.15;;
68995;SDS011;56056;48.990;12.146;2022-09-01T00:20:02;11.80;;;10.70;;
68995;SDS011;56056;48.990;12.146;2022-09-01T00:22:28;12.27;;;11.27;;
68995;SDS011;56056;48.990;12.146;2022-09-01T00:24:54;13.35;;;12.15;;
68995;SDS011;56056;48.990;12.146;2022-09-01T00:27:22;11.35;;;10.15;;
68995;SDS011;56056;48.990;12.146;2022-09-01T00:29:47;13.05;;;11.95;;
68995;SDS011;56056;48.990;12.146;2022-09-01T00:32:13;12.10;;;10.88;;
68995;SDS011;56056;48.990;12.146;2022-09-01T00:34:39;11.93;;;10.80;;
68995;SDS011;56056;48.990;12.146;2022-09-01T00:37:04;11.60;;;10.50;;
68995;SDS011;56056;48.990;12.146;2022-09-01T00:39:30;12.93;;;11.77;;
68995;SDS011;56056;48.990;12.146;2022-09-01T00:41:56;13.60;;;12.20;;
68995;SDS011;56056;48.990;12.146;2022-09-01T00:44:24;13.40;;;12.20;;
68995;SDS011;56056;48.990;12.146;2022-09-01T00:46:52;12.82;;;11.73;;
68995;SDS011;56056;48.990;12.146;2022-09-01T00:49:21;12.93;;;11.85;;
68995;SDS011;56056;48.990;12.146;2022-09-01T00:51:49;12.82;;;11.63;;
68995;SDS011;56056;48.990;12.146;2022-09-01T00:54:18;13.18;;;11.98;;
68995;SDS011;56056;48.990;12.146;2022-09-01T00:56:46;12.57;;;11.50;;
68995;SDS011;56056;48.990;12.146;2022-09-01T00:59:13;13.23;;;12.05;;
68995;SDS011;56056;48.990;12.146;2022-09-01T01:01:42;13.60;;;12.50;;
68995;SDS011;56056;48.990;12.146;2022-09-01T01:04:08;13.52;;;12.25;;
68995;SDS011;56056;48.990;12.146;2022-09-01T01:06:39;13.55;;;12.23;;
68995;SDS011;56056;48.990;12.146;2022-09-01T01:09:05;13.05;;;11.75;;
68995;SDS011;56056;48.990;12.146;2022-09-01T01:11:31;11.75;;;10.60;;
68995;SDS011;56056;48.990;12.146;2022-09-01T01:13:58;13.57;;;11.77;;
68995;SDS011;56056;48.990;12.146;2022-09-01T01:16:25;13.40;;;12.15;;
68995;SDS011;56056;48.990;12.146;2022-09-01T01:18:53;13.93;;;12.60;;
68995;SDS011;56056;48.990;12.146;2022-09-01T01:21:21;15.07;;;12.00;;
68995;SDS011;56056;48.990;12.146;2022-09-01T01:26:44;14.88;;;13.50;;
68995;SDS011;56056;48.990;12.146;2022-09-01T01:29:11;13.32;;;12.13;;
68995;SDS011;56056;48.990;12.146;2022-09-01T01:31:37;13.65;;;12.45;;
68995;SDS011;56056;48.990;12.146;2022-09-01T01:34:03;14.73;;;13.43;;
68995;SDS011;56056;48.990;12.146;2022-09-01T01:36:32;13.70;;;12.52;;
68995;SDS011;56056;48.990;12.146;2022-09-01T01:39:02;14.77;;;13.32;;
68995;SDS011;56056;48.990;12.146;2022-09-01T01:41:31;14.43;;;13.05;;
68995;SDS011;56056;48.990;12.146;2022-09-01T01:43:59;13.10;;;11.98;;
68995;SDS011;56056;48.990;12.146;2022-09-01T01:46:27;13.80;;;12.45;;
68995;SDS011;56056;48.990;12.146;2022-09-01T01:48:52;14.77;;;13.23;;
68995;SDS011;56056;48.990;12.146;2022-09-01T01:51:19;16.00;;;14.20;;
68995;SDS011;56056;48.990;12.146;2022-09-01T01:53:49;16.10;;;14.55;;
68995;SDS011;56056;48.990;12.146;2022-09-01T01:56:16;16.15;;;13.93;;
68995;SDS011;56056;48.990;12.146;2022-09-01T01:58:43;15.20;;;13.75;;
68995;SDS011;56056;48.990;12.146;2022-09-01T02:01:09;16.52;;;15.07;;
68995;SDS011;56056;48.990;12.146;2022-09-01T02:03:36;16.58;;;14.70;;
68995;SDS011;56056;48.990;12.146;2022-09-01T02:06:03;15.98;;;14.43;;
68995;SDS011;56056;48.990;12.146;2022-09-01T02:08:32;16.48;;;14.95;;
68995;SDS011;56056;48.990;12.146;2022-09-01T02:11:00;17.10;;;15.40;;
68995;SDS011;56056;48.990;12.146;2022-09-01T02:13:26;17.83;;;15.95;;
68995;SDS011;56056;48.990;12.146;2022-09-01T02:15:57;17.33;;;15.60;;
68995;SDS011;56056;48.990;12.146;2022-09-01T02:18:24;17.75;;;16.08;;
68995;SDS011;56056;48.990;12.146;2022-09-01T02:20:52;17.77;;;15.98;;
68995;SDS011;56056;48.990;12.146;2022-09-01T02:23:19;16.73;;;15.13;;
68995;SDS011;56056;48.990;12.146;2022-09-01T02:25:49;17.52;;;14.85;;
68995;SDS011;56056;48.990;12.146;2022-09-01T02:28:15;16.83;;;15.20;;
68995;SDS011;56056;48.990;12.146;2022-09-01T02:30:42;18.10;;;16.42;;
68995;SDS011;56056;48.990;12.146;2022-09-01T02:33:10;19.02;;;16.98;;
68995;SDS011;56056;48.990;12.146;2022-09-01T02:35:42;19.23;;;17.25;;
68995;SDS011;56056;48.990;12.146;2022-09-01T02:38:08;20.00;;;17.80;;
68995;SDS011;56056;48.990;12.146;2022-09-01T02:40:34;18.58;;;16.85;;
68995;SDS011;56056;48.990;12.146;2022-09-01T02:42:59;19.38;;;17.42;;
68995;SDS011;56056;48.990;12.146;2022-09-01T02:45:26;21.42;;;19.13;;
68995;SDS011;56056;48.990;12.146;2022-09-01T02:47:53;19.70;;;17.60;;
68995;SDS011;56056;48.990;12.146;2022-09-01T02:50:22;20.30;;;18.27;;
68995;SDS011;56056;48.990;12.146;2022-09-01T02:52:49;20.42;;;18.45;;
68995;SDS011;56056;48.990;12.146;2022-09-01T02:55:19;18.98;;;17.15;;
68995;SDS011;56056;48.990;12.146;2022-09-01T02:57:47;18.48;;;16.67;;
68995;SDS011;56056;48.990;12.146;2022-09-01T03:00:14;17.52;;;15.77;;
68995;SDS011;56056;48.990;12.146;2022-09-01T03:02:52;17.88;;;16.20;;
68995;SDS011;56056;48.990;12.146;2022-09-01T03:05:19;18.85;;;17.02;;
68995;SDS011;56056;48.990;12.146;2022-09-01T03:07:51;19.15;;;17.25;;
68995;SDS011;56056;48.990;12.146;2022-09-01T03:10:20;19.38;;;17.48;;
68995;SDS011;56056;48.990;12.146;2022-09-01T03:12:53;18.15;;;16.38;;
68995;SDS011;56056;48.990;12.146;2022-09-01T03:15:19;21.48;;;17.05;;
68995;SDS011;56056;48.990;12.146;2022-09-01T03:17:45;17.05;;;15.52;;
68995;SDS011;56056;48.990;12.146;2022-09-01T03:20:12;16.75;;;15.18;;
68995;SDS011;56056;48.990;12.146;2022-09-01T03:22:38;15.82;;;14.35;;
68995;SDS011;56056;48.990;12.146;2022-09-01T03:25:05;16.85;;;15.45;;
68995;SDS011;56056;48.990;12.146;2022-09-01T03:27:31;17.10;;;15.50;;
68995;SDS011;56056;48.990;12.146;2022-09-01T03:29:57;16.92;;;15.32;;
68995;SDS011;56056;48.990;12.146;2022-09-01T03:32:23;15.45;;;14.15;;
68995;SDS011;56056;48.990;12.146;2022-09-01T03:34:48;16.38;;;14.50;;
68995;SDS011;56056;48.990;12.146;2022-09-01T03:37:15;14.05;;;12.80;;
68995;SDS011;56056;48.990;12.146;2022-09-01T03:39:41;14.70;;;13.40;;
68995;SDS011;56056;48.990;12.146;2022-09-01T03:42:08;13.88;;;12.57;;
68995;SDS011;56056;48.990;12.146;2022-09-01T03:44:43;13.40;;;12.30;;
68995;SDS011;56056;48.990;12.146;2022-09-01T03:47:09;13.88;;;12.48;;
68995;SDS011;56056;48.990;12.146;2022-09-01T03:49:39;11.85;;;10.95;;
68995;SDS011;56056;48.990;12.146;2022-09-01T03:52:07;11.88;;;10.70;;
68995;SDS011;56056;48.990;12.146;2022-09-01T03:54:34;11.88;;;10.88;;
68995;SDS011;56056;48.990;12.146;2022-09-01T03:57:00;12.93;;;11.57;;
68995;SDS011;56056;48.990;12.146;2022-09-01T03:59:27;12.45;;;11.25;;
68995;SDS011;56056;48.990;12.146;2022-09-01T04:01:53;12.32;;;11.25;;
68995;SDS011;56056;48.990;12.146;2022-09-01T04:04:20;12.13;;;11.13;;
68995;SDS011;56056;48.990;12.146;2022-09-01T04:06:46;13.35;;;12.05;;
68995;SDS011;56056;48.990;12.146;2022-09-01T04:09:12;12.05;;;11.00;;
68995;SDS011;56056;48.990;12.146;2022-09-01T04:11:38;12.35;;;11.25;;
68995;SDS011;56056;48.990;12.146;2022-09-01T04:14:04;11.90;;;10.88;;
68995;SDS011;56056;48.990;12.146;2022-09-01T04:16:32;11.68;;;10.75;;
68995;SDS011;56056;48.990;12.146;2022-09-01T04:19:18;12.55;;;11.35;;
68995;SDS011;56056;48.990;12.146;2022-09-01T04:21:49;12.27;;;11.07;;
68995;SDS011;56056;48.990;12.146;2022-09-01T04:24:17;13.68;;;12.38;;
68995;SDS011;56056;48.990;12.146;2022-09-01T04:26:44;14.15;;;12.95;;
68995;SDS011;56056;48.990;12.146;2022-09-01T04:29:12;13.98;;;12.77;;
68995;SDS011;56056;48.990;12.146;2022-09-01T04:31:39;15.32;;;13.63;;
68995;SDS011;56056;48.990;12.146;2022-09-01T04:34:05;15.13;;;13.63;;
68995;SDS011;56056;48.990;12.146;2022-09-01T04:36:38;15.15;;;13.70;;
68995;SDS011;56056;48.990;12.146;2022-09-01T04:39:06;16.77;;;15.20;;
68995;SDS011;56056;48.990;12.146;2022-09-01T04:41:34;14.57;;;13.07;;
68995;SDS011;56056;48.990;12.146;2022-09-01T04:44:01;15.98;;;14.30;;
68995;SDS011;56056;48.990;12.146;2022-09-01T04:46:29;15.75;;;13.40;;
68995;SDS011;56056;48.990;12.146;2022-09-01T04:48:58;15.52;;;14.02;;
68995;SDS011;56056;48.990;12.146;2022-09-01T04:51:25;13.38;;;12.07;;
68995;SDS011;56056;48.990;12.146;2022-09-01T04:53:55;12.60;;;11.45;;
68995;SDS011;56056;48.990;12.146;2022-09-01T04:56:21;12.45;;;11.45;;
68995;SDS011;56056;48.990;12.146;2022-09-01T04:58:48;12.10;;;11.13;;
68995;SDS011;56056;48.990;12.146;2022-09-01T05:01:14;12.88;;;11.52;;
68995;SDS011;56056;48.990;12.146;2022-09-01T05:03:41;12.65;;;11.45;;
68995;SDS011;56056;48.990;12.146;2022-09-01T05:06:12;12.32;;;11.13;;
68995;SDS011;56056;48.990;12.146;2022-09-01T05:08:38;12.32;;;11.38;;
68995;SDS011;56056;48.990;12.146;2022-09-01T05:11:05;12.98;;;11.73;;
68995;SDS011;56056;48.990;12.146;2022-09-01T05:13:32;11.88;;;10.88;;
68995;SDS011;56056;48.990;12.146;2022-09-01T05:15:59;11.77;;;10.73;;
68995;SDS011;56056;48.990;12.146;2022-09-01T05:18:26;11.68;;;10.55;;
68995;SDS011;56056;48.990;12.146;2022-09-01T05:20:53;12.38;;;11.25;;
68995;SDS011;56056;48.990;12.146;2022-09-01T05:23:20;13.63;;;12.20;;
68995;SDS011;56056;48.990;12.146;2022-09-01T05:25:48;13.10;;;11.82;;
68995;SDS011;56056;48.990;12.146;2022-09-01T05:28:19;12.10;;;11.00;;
68995;SDS011;56056;48.990;12.146;2022-09-01T05:30:49;10.35;;;9.55;;
68995;SDS011;56056;48.990;12.146;2022-09-01T05:33:18;10.10;;;9.30;;
68995;SDS011;56056;48.990;12.146;2022-09-01T05:35:50;11.00;;;9.93;;
68995;SDS011;56056;48.990;12.146;2022-09-01T05:38:17;10.02;;;9.02;;
68995;SDS011;56056;48.990;12.146;2022-09-01T05:40:44;9.40;;;8.57;;
68995;SDS011;56056;48.990;12.146;2022-09-01T05:43:19;10.48;;;8.35;;
68995;SDS011;56056;48.990;12.146;2022-09-01T05:45:45;9.02;;;8.32;;
68995;SDS011;56056;48.990;12.146;2022-09-01T05:48:11;8.60;;;7.90;;
68995;SDS011;56056;48.990;12.146;2022-09-01T05:50:41;7.95;;;7.18;;
68995;SDS011;56056;48.990;12.146;2022-09-01T05:53:08;8.07;;;7.47;;
68995;SDS011;56056;48.990;12.146;2022-09-01T05:55:35;8.55;;;7.90;;
68995;SDS011;56056;48.990;12.146;2022-09-01T05:58:03;7.75;;;7.18;;
68995;SDS011;56056;48.990;12.146;2022-09-01T06:00:29;8.52;;;7.82;;
68995;SDS011;56056;48.990;12.146;2022-09-01T06:02:58;8.40;;;7.80;;
68995;SDS011;56056;48.990;12.146;2022-09-01T06:05:25;8.15;;;7.55;;
68995;SDS011;56056;48.990;12.146;2022-09-01T06:07:50;8.10;;;7.40;;
68995;SDS011;56056;48.990;12.146;2022-09-01T06:10:21;8.05;;;7.50;;
68995;SDS011;56056;48.990;12.146;2022-09-01T06:12:47;7.85;;;7.25;;
68995;SDS011;56056;48.990;12.146;2022-09-01T06:15:18;8.55;;;7.88;;
68995;SDS011;56056;48.990;12.146;2022-09-01T06:17:45;8.15;;;7.55;;
68995;SDS011;56056;48.990;12.146;2022-09-01T06:20:11;7.55;;;6.95;;
68995;SDS011;56056;48.990;12.146;2022-09-01T06:22:37;7.35;;;6.75;;
68995;SDS011;56056;48.990;12.146;2022-09-01T06:25:04;7.43;;;6.93;;
68995;SDS011;56056;48.990;12.146;2022-09-01T06:27:32;9.05;;;7.75;;
68995;SDS011;56056;48.990;12.146;2022-09-01T06:30:02;8.00;;;6.80;;
68995;SDS011;56056;48.990;12.146;2022-09-01T06:32:40;7.07;;;6.68;;
68995;SDS011;56056;48.990;12.146;2022-09-01T06:35:07;7.90;;;7.40;;
68995;SDS011;56056;48.990;12.146;2022-09-01T06:37:35;6.90;;;6.43;;
68995;SDS011;56056;48.990;12.146;2022-09-01T06:40:03;7.63;;;7.03;;
68995;SDS011;56056;48.990;12.146;2022-09-01T06:42:29;7.82;;;7.32;;
68995;SDS011;56056;48.990;12.146;2022-09-01T06:44:59;7.35;;;6.85;;
68995;SDS011;56056;48.990;12.146;2022-09-01T06:47:24;7.50;;;6.43;;
68995;SDS011;56056;48.990;12.146;2022-09-01T06:49:53;6.65;;;6.25;;
68995;SDS011;56056;48.990;12.146;2022-09-01T06:52:22;7.22;;;6.63;;
68995;SDS011;56056;48.990;12.146;2022-09-01T06:54:48;6.80;;;6.40;;
68995;SDS011;56056;48.990;12.146;2022-09-01T06:57:16;7.65;;;7.05;;
68995;SDS011;56056;48.990;12.146;2022-09-01T06:59:42;7.30;;;6.80;;
68995;SDS011;56056;48.990;12.146;2022-09-01T07:02:07;7.78;;;7.28;;
68995;SDS011;56056;48.990;12.146;2022-09-01T07:04:33;6.72;;;6.13;;
68995;SDS011;56056;48.990;12.146;2022-09-01T07:07:04;7.93;;;7.25;;
68995;SDS011;56056;48.990;12.146;2022-09-01T07:09:31;6.50;;;6.10;;
68995;SDS011;56056;48.990;12.146;2022-09-01T07:11:57;7.38;;;6.85;;
68995;SDS011;56056;48.990;12.146;2022-09-01T07:14:23;7.30;;;6.80;;
68995;SDS011;56056;48.990;12.146;2022-09-01T07:16:49;7.63;;;7.05;;
68995;SDS011;56056;48.990;12.146;2022-09-01T07:19:15;8.02;;;7.53;;
68995;SDS011;56056;48.990;12.146;2022-09-01T07:21:41;7.75;;;7.35;;
68995;SDS011;56056;48.990;12.146;2022-09-01T07:24:09;8.80;;;8.15;;
68995;SDS011;56056;48.990;12.146;2022-09-01T07:26:35;22.50;;;20.55;;
68995;SDS011;56056;48.990;12.146;2022-09-01T07:29:02;9.40;;;8.55;;
68995;SDS011;56056;48.990;12.146;2022-09-01T07:31:29;7.90;;;7.30;;
68995;SDS011;56056;48.990;12.146;2022-09-01T07:33:56;7.65;;;7.05;;
68995;SDS011;56056;48.990;12.146;2022-09-01T07:36:24;7.63;;;6.95;;
68995;SDS011;56056;48.990;12.146;2022-09-01T07:38:50;7.70;;;7.20;;
68995;SDS011;56056;48.990;12.146;2022-09-01T07:41:19;7.90;;;7.40;;
68995;SDS011;56056;48.990;12.146;2022-09-01T07:43:45;7.85;;;7.35;;
68995;SDS011;56056;48.990;12.146;2022-09-01T07:46:16;8.77;;;7.85;;
68995;SDS011;56056;48.990;12.146;2022-09-01T07:48:42;7.07;;;6.60;;
68995;SDS011;56056;48.990;12.146;2022-09-01T07:51:10;7.35;;;6.65;;
68995;SDS011;56056;48.990;12.146;2022-09-01T07:53:37;7.40;;;6.80;;
68995;SDS011;56056;48.990;12.146;2022-09-01T07:56:04;6.60;;;6.20;;
68995;SDS011;56056;48.990;12.146;2022-09-01T07:58:32;7.15;;;6.43;;
68995;SDS011;56056;48.990;12.146;2022-09-01T08:00:58;6.60;;;6.10;;
68995;SDS011;56056;48.990;12.146;2022-09-01T08:03:26;6.45;;;5.95;;
68995;SDS011;56056;48.990;12.146;2022-09-01T08:05:53;6.28;;;5.88;;
68995;SDS011;56056;48.990;12.146;2022-09-01T08:08:22;6.10;;;5.70;;
68995;SDS011;56056;48.990;12.146;2022-09-01T08:10:48;8.38;;;7.53;;
68995;SDS011;56056;48.990;12.146;2022-09-01T08:13:14;6.28;;;5.60;;
68995;SDS011;56056;48.990;12.146;2022-09-01T08:15:41;5.45;;;5.15;;
68995;SDS011;56056;48.990;12.146;2022-09-01T08:18:08;5.88;;;5.57;;
68995;SDS011;56056;48.990;12.146;2022-09-01T08:20:34;7.05;;;6.55;;
68995;SDS011;56056;48.990;12.146;2022-09-01T08:23:03;6.30;;;5.90;;
68995;SDS011;56056;48.990;12.146;2022-09-01T08:25:29;5.32;;;5.00;;
68995;SDS011;56056;48.990;12.146;2022-09-01T08:27:56;5.80;;;5.50;;
68995;SDS011;56056;48.990;12.146;2022-09-01T08:30:21;6.00;;;5.68;;
68995;SDS011;56056;48.990;12.146;2022-09-01T08:32:48;6.55;;;6.15;;
68995;SDS011;56056;48.990;12.146;2022-09-01T08:35:16;6.43;;;6.03;;
68995;SDS011;56056;48.990;12.146;2022-09-01T08:37:41;5.32;;;4.90;;
68995;SDS011;56056;48.990;12.146;2022-09-01T08:40:09;4.75;;;4.45;;
68995;SDS011;56056;48.990;12.146;2022-09-01T08:42:42;4.22;;;4.03;;
68995;SDS011;56056;48.990;12.146;2022-09-01T08:45:14;4.43;;;4.10;;
68995;SDS011;56056;48.990;12.146;2022-09-01T08:47:45;5.22;;;4.72;;
68995;SDS011;56056;48.990;12.146;2022-09-01T08:50:13;5.22;;;4.82;;
68995;SDS011;56056;48.990;12.146;2022-09-01T08:52:40;6.55;;;5.20;;
68995;SDS011;56056;48.990;12.146;2022-09-01T08:55:09;5.43;;;5.13;;
68995;SDS011;56056;48.990;12.146;2022-09-01T08:57:39;6.07;;;5.78;;
68995;SDS011;56056;48.990;12.146;2022-09-01T09:00:06;5.68;;;5.28;;
68995;SDS011;56056;48.990;12.146;2022-09-01T09:02:41;4.90;;;4.60;;
68995;SDS011;56056;48.990;12.146;2022-09-01T09:05:18;4.82;;;4.43;;
68995;SDS011;56056;48.990;12.146;2022-09-01T09:07:55;4.18;;;3.97;;
68995;SDS011;56056;48.990;12.146;2022-09-01T09:10:28;5.35;;;4.95;;
68995;SDS011;56056;48.990;12.146;2022-09-01T09:12:59;5.07;;;4.68;;
68995;SDS011;56056;48.990;12.146;2022-09-01T09:15:32;4.82;;;4.43;;
68995;SDS011;56056;48.990;12.146;2022-09-01T09:18:07;4.93;;;4.50;;
68995;SDS011;56056;48.990;12.146;2022-09-01T09:20:39;5.97;;;5.57;;
68995;SDS011;56056;48.990;12.146;2022-09-01T09:23:09;5.03;;;4.72;;
68995;SDS011;56056;48.990;12.146;2022-09-01T09:25:48;5.03;;;4.70;;
68995;SDS011;56056;48.990;12.146;2022-09-01T09:28:14;4.75;;;4.45;;
68995;SDS011;56056;48.990;12.146;2022-09-01T09:30:40;4.95;;;4.57;;
68995;SDS011;56056;48.990;12.146;2022-09-01T09:33:06;4.72;;;4.35;;
68995;SDS011;56056;48.990;12.146;2022-09-01T09:35:35;4.47;;;4.18;;
68995;SDS011;56056;48.990;12.146;2022-09-01T09:38:15;4.40;;;4.07;;
68995;SDS011;56056;48.990;12.146;2022-09-01T09:40:54;4.05;;;3.75;;
68995;SDS011;56056;48.990;12.146;2022-09-01T09:43:41;4.63;;;4.32;;
68995;SDS011;56056;48.990;12.146;2022-09-01T09:46:21;3.95;;;3.75;;
68995;SDS011;56056;48.990;12.146;2022-09-01T09:48:51;5.40;;;4.05;;
68995;SDS011;56056;48.990;12.146;2022-09-01T09:51:35;4.88;;;4.57;;
68995;SDS011;56056;48.990;12.146;2022-09-01T09:54:12;4.80;;;4.40;;
68995;SDS011;56056;48.990;12.146;2022-09-01T09:56:40;4.78;;;4.50;;
68995;SDS011;56056;48.990;12.146;2022-09-01T10:01:51;8.95;;;8.15;;
68995;SDS011;56056;48.990;12.146;2022-09-01T10:04:32;36.92;;;33.25;;
68995;SDS011;56056;48.990;12.146;2022-09-01T10:07:00;6.78;;;6.20;;
68995;SDS011;56056;48.990;12.146;2022-09-01T10:09:36;5.20;;;4.90;;
68995;SDS011;56056;48.990;12.146;2022-09-01T10:12:02;5.15;;;4.75;;
68995;SDS011;56056;48.990;12.146;2022-09-01T10:14:30;5.05;;;4.60;;
68995;SDS011;56056;48.990;12.146;2022-09-01T10:17:00;5.68;;;5.18;;
68995;SDS011;56056;48.990;12.146;2022-09-01T10:19:27;5.15;;;4.75;;
68995;SDS011;56056;48.990;12.146;2022-09-01T10:21:54;5.95;;;5.45;;
68995;SDS011;56056;48.990;12.146;2022-09-01T10:24:22;4.82;;;4.38;;
68995;SDS011;56056;48.990;12.146;2022-09-01T10:26:55;4.85;;;4.55;;
68995;SDS011;56056;48.990;12.146;2022-09-01T10:29:23;4.38;;;4.10;;
68995;SDS011;56056;48.990;12.146;2022-09-01T10:31:52;5.13;;;4.63;;
68995;SDS011;56056;48.990;12.146;2022-09-01T10:34:18;4.75;;;4.45;;
68995;SDS011;56056;48.990;12.146;2022-09-01T10:36:45;4.63;;;4.32;;
68995;SDS011;56056;48.990;12.146;2022-09-01T10:39:12;4.45;;;4.15;;
68995;SDS011;56056;48.990;12.146;2022-09-01T10:41:43;4.40;;;4.10;;
68995;SDS011;56056;48.990;12.146;2022-09-01T10:44:18;3.90;;;3.70;;
68995;SDS011;56056;48.990;12.146;2022-09-01T10:46:46;4.60;;;4.20;;
68995;SDS011;56056;48.990;12.146;2022-09-01T10:49:20;3.90;;;3.70;;
68995;SDS011;56056;48.990;12.146;2022-09-01T10:52:01;4.63;;;4.30;;
68995;SDS011;56056;48.990;12.146;2022-09-01T10:57:24;4.25;;;3.95;;
68995;SDS011;56056;48.990;12.146;2022-09-01T11:03:02;4.60;;;4.30;;
68995;SDS011;56056;48.990;12.146;2022-09-01T11:08:59;4.00;;;3.75;;
68995;SDS011;56056;48.990;12.146;2022-09-01T11:11:28;4.40;;;4.15;;
68995;SDS011;56056;48.990;12.146;2022-09-01T11:13:57;4.15;;;3.95;;
68995;SDS011;56056;48.990;12.146;2022-09-01T11:16:31;3.95;;;3.60;;
68995;SDS011;56056;48.990;12.146;2022-09-01T11:19:23;3.65;;;3.45;;
68995;SDS011;56056;48.990;12.146;2022-09-01T11:22:04;4.35;;;4.10;;
68995;SDS011;56056;48.990;12.146;2022-09-01T11:24:48;4.53;;;4.32;;
68995;SDS011;56056;48.990;12.146;2022-09-01T11:30:15;3.75;;;3.60;;
68995;SDS011;56056;48.990;12.146;2022-09-01T11:32:41;3.80;;;3.60;;
68995;SDS011;56056;48.990;12.146;2022-09-01T11:35:14;3.60;;;3.40;;
68995;SDS011;56056;48.990;12.146;2022-09-01T11:37:42;3.65;;;3.35;;
68995;SDS011;56056;48.990;12.146;2022-09-01T11:40:11;3.75;;;3.45;;
68995;SDS011;56056;48.990;12.146;2022-09-01T11:42:45;3.40;;;3.10;;
68995;SDS011;56056;48.990;12.146;2022-09-01T11:45:13;3.97;;;3.78;;
68995;SDS011;56056;48.990;12.146;2022-09-01T11:47:41;3.00;;;2.78;;
68995;SDS011;56056;48.990;12.146;2022-09-01T11:50:16;3.35;;;3.15;;
68995;SDS011;56056;48.990;12.146;2022-09-01T11:52:51;2.95;;;2.83;;
68995;SDS011;56056;48.990;12.146;2022-09-01T11:55:26;2.90;;;2.65;;
68995;SDS011;56056;48.990;12.146;2022-09-01T11:57:53;3.55;;;2.90;;
68995;SDS011;56056;48.990;12.146;2022-09-01T12:00:24;2.75;;;2.63;;
68995;SDS011;56056;48.990;12.146;2022-09-01T12:02:51;3.22;;;2.92;;
68995;SDS011;56056;48.990;12.146;2022-09-01T12:05:25;3.10;;;3.00;;
68995;SDS011;56056;48.990;12.146;2022-09-01T12:07:53;3.47;;;3.28;;
68995;SDS011;56056;48.990;12.146;2022-09-01T12:10:21;3.55;;;3.25;;
68995;SDS011;56056;48.990;12.146;2022-09-01T12:12:58;2.97;;;2.88;;
68995;SDS011;56056;48.990;12.146;2022-09-01T12:15:25;3.40;;;3.10;;
68995;SDS011;56056;48.990;12.146;2022-09-01T12:17:52;3.22;;;3.00;;
68995;SDS011;56056;48.990;12.146;2022-09-01T12:20:18;4.10;;;3.90;;
68995;SDS011;56056;48.990;12.146;2022-09-01T12:22:50;3.10;;;2.90;;
68995;SDS011;56056;48.990;12.146;2022-09-01T12:25:19;3.30;;;3.10;;
68995;SDS011;56056;48.990;12.146;2022-09-01T12:27:46;3.60;;;3.40;;
68995;SDS011;56056;48.990;12.146;2022-09-01T12:30:12;2.92;;;2.72;;
68995;SDS011;56056;48.990;12.146;2022-09-01T12:32:38;3.17;;;2.85;;
68995;SDS011;56056;48.990;12.146;2022-09-01T12:35:04;3.78;;;3.47;;
68995;SDS011;56056;48.990;12.146;2022-09-01T12:37:40;3.33;;;3.03;;
68995;SDS011;56056;48.990;12.146;2022-09-01T12:40:16;3.03;;;2.88;;
68995;SDS011;56056;48.990;12.146;2022-09-01T12:42:48;3.30;;;2.95;;
68995;SDS011;56056;48.990;12.146;2022-09-01T12:45:14;4.30;;;2.72;;
68995;SDS011;56056;48.990;12.146;2022-09-01T12:48:01;3.45;;;3.15;;
68995;SDS011;56056;48.990;12.146;2022-09-01T12:50:34;3.20;;;3.10;;
68995;SDS011;56056;48.990;12.146;2022-09-01T12:53:12;2.88;;;2.63;;
68995;SDS011;56056;48.990;12.146;2022-09-01T12:55:41;2.70;;;2.60;;
68995;SDS011;56056;48.990;12.146;2022-09-01T12:58:20;3.55;;;3.25;;
68995;SDS011;56056;48.990;12.146;2022-09-01T13:00:53;3.53;;;3.33;;
68995;SDS011;56056;48.990;12.146;2022-09-01T13:03:20;7.28;;;6.72;;
68995;SDS011;56056;48.990;12.146;2022-09-01T13:05:48;10.98;;;9.45;;
68995;SDS011;56056;48.990;12.146;2022-09-01T13:08:16;3.47;;;3.17;;
68995;SDS011;56056;48.990;12.146;2022-09-01T13:10:45;3.22;;;3.03;;
68995;SDS011;56056;48.990;12.146;2022-09-01T13:13:12;3.60;;;3.30;;
68995;SDS011;56056;48.990;12.146;2022-09-01T13:15:40;3.92;;;2.92;;
68995;SDS011;56056;48.990;12.146;2022-09-01T13:18:07;3.03;;;2.83;;
68995;SDS011;56056;48.990;12.146;2022-09-01T13:20:33;2.67;;;2.25;;
68995;SDS011;56056;48.990;12.146;2022-09-01T13:22:59;2.42;;;2.33;;
68995;SDS011;56056;48.990;12.146;2022-09-01T13:25:25;2.42;;;2.20;;
68995;SDS011;56056;48.990;12.146;2022-09-01T13:27:52;2.95;;;2.78;;
68995;SDS011;56056;48.990;12.146;2022-09-01T13:30:19;3.83;;;2.25;;
68995;SDS011;56056;48.990;12.146;2022-09-01T13:32:46;2.40;;;2.30;;
68995;SDS011;56056;48.990;12.146;2022-09-01T13:35:13;2.47;;;2.30;;
68995;SDS011;56056;48.990;12.146;2022-09-01T13:37:41;2.60;;;2.50;;
68995;SDS011;56056;48.990;12.146;2022-09-01T13:40:07;2.35;;;2.20;;
68995;SDS011;56056;48.990;12.146;2022-09-01T13:42:39;2.53;;;2.42;;
68995;SDS011;56056;48.990;12.146;2022-09-01T13:45:06;4.88;;;3.00;;
68995;SDS011;56056;48.990;12.146;2022-09-01T13:47:34;2.92;;;2.70;;
68995;SDS011;56056;48.990;12.146;2022-09-01T13:50:00;2.55;;;2.45;;
68995;SDS011;56056;48.990;12.146;2022-09-01T13:52:25;2.92;;;2.60;;
68995;SDS011;56056;48.990;12.146;2022-09-01T13:54:51;2.88;;;2.67;;
68995;SDS011;56056;48.990;12.146;2022-09-01T13:57:17;3.72;;;3.10;;
68995;SDS011;56056;48.990;12.146;2022-09-01T13:59:42;2.70;;;2.55;;
68995;SDS011;56056;48.990;12.146;2022-09-01T14:02:10;2.47;;;2.38;;
68995;SDS011;56056;48.990;12.146;2022-09-01T14:04:35;2.55;;;2.45;;
68995;SDS011;56056;48.990;12.146;2022-09-01T14:07:01;2.88;;;2.63;;
68995;SDS011;56056;48.990;12.146;2022-09-01T14:09:27;3.08;;;2.88;;
68995;SDS011;56056;48.990;12.146;2022-09-01T14:11:53;3.13;;;2.90;;
68995;SDS011;56056;48.990;12.146;2022-09-01T14:14:19;2.92;;;2.72;;
68995;SDS011;56056;48.990;12.146;2022-09-01T14:16:45;3.65;;;3.00;;
68995;SDS011;56056;48.990;12.146;2022-09-01T14:19:12;8.07;;;5.10;;
68995;SDS011;56056;48.990;12.146;2022-09-01T14:21:37;2.95;;;2.75;;
68995;SDS011;56056;48.990;12.146;2022-09-01T14:24:03;3.83;;;3.53;;
68995;SDS011;56056;48.990;12.146;2022-09-01T14:26:30;3.05;;;2.80;;
68995;SDS011;56056;48.990;12.146;2022-09-01T14:28:55;2.80;;;2.60;;
68995;SDS011;56056;48.990;12.146;2022-09-01T14:31:22;3.10;;;2.80;;
68995;SDS011;56056;48.990;12.146;2022-09-01T14:33:48;3.13;;;2.92;;
68995;SDS011;56056;48.990;12.146;2022-09-01T14:36:19;2.72;;;2.63;;
68995;SDS011;56056;48.990;12.146;2022-09-01T14:38:45;2.38;;;2.28;;
68995;SDS011;56056;48.990;12.146;2022-09-01T14:41:13;2.97;;;2.72;;
68995;SDS011;56056;48.990;12.146;2022-09-01T14:43:39;3.13;;;2.38;;
68995;SDS011;56056;48.990;12.146;2022-09-01T14:46:07;2.50;;;2.30;;
68995;SDS011;56056;48.990;12.146;2022-09-01T14:48:35;2.78;;;2.25;;